sensor_id;sensor_type;location;lat;lon;timestamp;temperature;humidity
6174;DHT22;3120;48.796;9.796;2023-02-12T00:00:37;4.30;99.90
6174;DHT22;3120;48.796;9.796;2023-02-12T00:03:03;4.20;99.90
6174;DHT22;3120;48.796;9.796;2023-02-12T00:05:29;4.20;99.90
6174;DHT22;3120;48.796;9.796;2023-02-12T00:07:55;4.40;99.90
6174;DHT22;3120;48.796;9.796;2023-02-12T00:10:21;4.40;99.90
6174;DHT22;3120;48.796;9.796;2023-02-12T00:12:47;4.30;99.90
6174;DHT22;3120;48.796;9.796;2023-02-12T00:15:12;4.30;99.90
6174;DHT22;3120;48.796;9.796;2023-02-12T00:17:38;5.20;99.90
6174;DHT22;3120;48.796;9.796;2023-02-12T00:20:04;4.40;99.90
6174;DHT22;3120;48.796;9.796;2023-02-12T00:22:30;4.40;99.90
6174;DHT22;3120;48.796;9.796;2023-02-12T00:24:56;4.30;99.90
6174;DHT22;3120;48.796;9.796;2023-02-12T00:27:22;4.30;99.90
6174;DHT22;3120;48.796;9.796;2023-02-12T00:29:48;4.40;99.90
6174;DHT22;3120;48.796;9.796;2023-02-12T00:32:13;4.30;99.90
6174;DHT22;3120;48.796;9.796;2023-02-12T00:34:44;4.40;99.90
6174;DHT22;3120;48.796;9.796;2023-02-12T00:37:10;4.40;99.90
6174;DHT22;3120;48.796;9.796;2023-02-12T00:39:35;4.40;99.90
6174;DHT22;3120;48.796;9.796;2023-02-12T00:42:02;4.50;99.90
6174;DHT22;3120;48.796;9.796;2023-02-12T00:44:28;4.50;99.90
6174;DHT22;3120;48.796;9.796;2023-02-12T00:46:53;4.50;99.90
6174;DHT22;3120;48.796;9.796;2023-02-12T00:49:22;4.40;99.90
6174;DHT22;3120;48.796;9.796;2023-02-12T00:51:48;5.00;99.90
6174;DHT22;3120;48.796;9.796;2023-02-12T00:54:14;4.40;99.90
6174;DHT22;3120;48.796;9.796;2023-02-12T00:56:39;4.50;99.90
6174;DHT22;3120;48.796;9.796;2023-02-12T00:59:05;4.60;99.90
6174;DHT22;3120;48.796;9.796;2023-02-12T01:01:31;5.20;99.90
6174;DHT22;3120;48.796;9.796;2023-02-12T01:03:56;4.50;99.90
6174;DHT22;3120;48.796;9.796;2023-02-12T01:06:22;5.50;99.90
6174;DHT22;3120;48.796;9.796;2023-02-12T01:08:51;4.40;99.90
6174;DHT22;3120;48.796;9.796;2023-02-12T01:11:17;4.40;99.90
6174;DHT22;3120;48.796;9.796;2023-02-12T01:13:43;5.30;99.90
6174;DHT22;3120;48.796;9.796;2023-02-12T01:16:15;4.50;99.90
6174;DHT22;3120;48.796;9.796;2023-02-12T01:18:41;4.40;99.90
6174;DHT22;3120;48.796;9.796;2023-02-12T01:21:14;4.50;99.90
6174;DHT22;3120;48.796;9.796;2023-02-12T01:23:41;4.50;99.90
6174;DHT22;3120;48.796;9.796;2023-02-12T01:26:08;4.40;99.90
6174;DHT22;3120;48.796;9.796;2023-02-12T01:28:36;4.40;99.90
6174;DHT22;3120;48.796;9.796;2023-02-12T01:33:34;4.40;99.90
6174;DHT22;3120;48.796;9.796;2023-02-12T01:36:00;4.40;99.90
6174;DHT22;3120;48.796;9.796;2023-02-12T01:38:25;4.30;99.90
6174;DHT22;3120;48.796;9.796;2023-02-12T01:40:51;4.30;99.90
6174;DHT22;3120;48.796;9.796;2023-02-12T01:43:17;4.30;99.90
6174;DHT22;3120;48.796;9.796;2023-02-12T01:45:48;4.30;99.90
6174;DHT22;3120;48.796;9.796;2023-02-12T01:48:16;4.30;99.90
6174;DHT22;3120;48.796;9.796;2023-02-12T01:50:44;5.00;99.90
6174;DHT22;3120;48.796;9.796;2023-02-12T01:53:10;4.20;99.90
6174;DHT22;3120;48.796;9.796;2023-02-12T01:55:38;4.20;99.90
6174;DHT22;3120;48.796;9.796;2023-02-12T01:58:04;4.20;99.90
6174;DHT22;3120;48.796;9.796;2023-02-12T02:00:30;4.20;99.90
6174;DHT22;3120;48.796;9.796;2023-02-12T02:02:58;4.30;99.90
6174;DHT22;3120;48.796;9.796;2023-02-12T02:05:34;4.20;99.90
6174;DHT22;3120;48.796;9.796;2023-02-12T02:08:03;4.20;99.90
6174;DHT22;3120;48.796;9.796;2023-02-12T02:10:29;4.30;99.90
6174;DHT22;3120;48.796;9.796;2023-02-12T02:12:55;5.00;99.90
6174;DHT22;3120;48.796;9.796;2023-02-12T02:15:41;4.30;99.90
6174;DHT22;3120;48.796;9.796;2023-02-12T02:18:36;4.20;99.90
6174;DHT22;3120;48.796;9.796;2023-02-12T02:21:37;4.20;99.90
6174;DHT22;3120;48.796;9.796;2023-02-12T02:35:27;4.40;99.90
6174;DHT22;3120;48.796;9.796;2023-02-12T02:38:06;4.40;99.90
6174;DHT22;3120;48.796;9.796;2023-02-12T02:40:54;4.30;99.90
6174;DHT22;3120;48.796;9.796;2023-02-12T02:43:35;4.30;99.90
6174;DHT22;3120;48.796;9.796;2023-02-12T02:46:12;4.20;99.90
6174;DHT22;3120;48.796;9.796;2023-02-12T02:48:47;4.30;99.90
6174;DHT22;3120;48.796;9.796;2023-02-12T02:51:19;4.30;99.90
6174;DHT22;3120;48.796;9.796;2023-02-12T02:53:50;4.10;99.90
6174;DHT22;3120;48.796;9.796;2023-02-12T02:56:18;4.30;99.90
6174;DHT22;3120;48.796;9.796;2023-02-12T02:58:52;4.30;99.90
6174;DHT22;3120;48.796;9.796;2023-02-12T03:01:23;4.30;99.90
6174;DHT22;3120;48.796;9.796;2023-02-12T03:03:58;4.30;99.90
6174;DHT22;3120;48.796;9.796;2023-02-12T03:06:53;4.30;99.90
6174;DHT22;3120;48.796;9.796;2023-02-12T03:09:25;4.30;99.90
6174;DHT22;3120;48.796;9.796;2023-02-12T03:11:56;4.30;99.90
6174;DHT22;3120;48.796;9.796;2023-02-12T03:14:27;4.30;99.90
6174;DHT22;3120;48.796;9.796;2023-02-12T03:16:57;4.30;99.90
6174;DHT22;3120;48.796;9.796;2023-02-12T03:19:26;4.30;99.90
6174;DHT22;3120;48.796;9.796;2023-02-12T03:22:15;4.20;99.90
6174;DHT22;3120;48.796;9.796;2023-02-12T03:27:30;4.20;99.90
6174;DHT22;3120;48.796;9.796;2023-02-12T03:29:56;4.20;99.90
6174;DHT22;3120;48.796;9.796;2023-02-12T03:32:34;4.30;99.90
6174;DHT22;3120;48.796;9.796;2023-02-12T03:35:12;4.30;99.90
6174;DHT22;3120;48.796;9.796;2023-02-12T03:40:22;4.30;99.90
6174;DHT22;3120;48.796;9.796;2023-02-12T03:43:12;4.20;99.90
6174;DHT22;3120;48.796;9.796;2023-02-12T03:51:04;4.20;99.90
6174;DHT22;3120;48.796;9.796;2023-02-12T03:53:34;4.20;99.90
6174;DHT22;3120;48.796;9.796;2023-02-12T03:56:10;4.20;99.90
6174;DHT22;3120;48.796;9.796;2023-02-12T03:58:37;4.20;99.90
6174;DHT22;3120;48.796;9.796;2023-02-12T04:01:04;4.20;99.90
6174;DHT22;3120;48.796;9.796;2023-02-12T04:03:30;4.20;99.90
6174;DHT22;3120;48.796;9.796;2023-02-12T04:05:56;4.20;99.90
6174;DHT22;3120;48.796;9.796;2023-02-12T04:08:22;4.20;99.90
6174;DHT22;3120;48.796;9.796;2023-02-12T04:13:41;4.30;99.90
6174;DHT22;3120;48.796;9.796;2023-02-12T04:16:21;4.20;99.90
6174;DHT22;3120;48.796;9.796;2023-02-12T04:18:50;4.20;99.90
6174;DHT22;3120;48.796;9.796;2023-02-12T04:21:42;4.30;99.90
6174;DHT22;3120;48.796;9.796;2023-02-12T04:27:15;4.20;99.90
6174;DHT22;3120;48.796;9.796;2023-02-12T04:32:48;4.20;99.90
6174;DHT22;3120;48.796;9.796;2023-02-12T04:38:14;4.20;99.90
6174;DHT22;3120;48.796;9.796;2023-02-12T04:40:42;4.20;99.90
6174;DHT22;3120;48.796;9.796;2023-02-12T04:43:08;4.20;99.90
6174;DHT22;3120;48.796;9.796;2023-02-12T04:45:36;4.20;99.90
6174;DHT22;3120;48.796;9.796;2023-02-12T04:48:02;4.20;99.90
6174;DHT22;3120;48.796;9.796;2023-02-12T04:50:37;4.20;99.90
6174;DHT22;3120;48.796;9.796;2023-02-12T04:53:03;4.10;99.90
6174;DHT22;3120;48.796;9.796;2023-02-12T04:55:29;4.10;99.90
6174;DHT22;3120;48.796;9.796;2023-02-12T04:57:54;3.80;99.90
6174;DHT22;3120;48.796;9.796;2023-02-12T05:00:20;4.10;99.90
6174;DHT22;3120;48.796;9.796;2023-02-12T05:02:45;4.10;99.90
6174;DHT22;3120;48.796;9.796;2023-02-12T05:05:11;4.10;99.90
6174;DHT22;3120;48.796;9.796;2023-02-12T05:07:37;4.20;99.90
6174;DHT22;3120;48.796;9.796;2023-02-12T05:10:02;4.10;99.90
6174;DHT22;3120;48.796;9.796;2023-02-12T05:12:28;4.10;99.90
6174;DHT22;3120;48.796;9.796;2023-02-12T05:14:54;4.20;99.90
6174;DHT22;3120;48.796;9.796;2023-02-12T05:17:22;4.20;99.90
6174;DHT22;3120;48.796;9.796;2023-02-12T05:19:47;4.10;99.90
6174;DHT22;3120;48.796;9.796;2023-02-12T05:22:13;4.10;99.90
6174;DHT22;3120;48.796;9.796;2023-02-12T05:24:38;4.10;99.90
6174;DHT22;3120;48.796;9.796;2023-02-12T05:27:05;4.00;99.90
6174;DHT22;3120;48.796;9.796;2023-02-12T05:29:30;4.00;99.90
6174;DHT22;3120;48.796;9.796;2023-02-12T05:31:56;4.00;99.90
6174;DHT22;3120;48.796;9.796;2023-02-12T05:34:21;4.00;99.90
6174;DHT22;3120;48.796;9.796;2023-02-12T05:36:47;4.00;99.90
6174;DHT22;3120;48.796;9.796;2023-02-12T05:39:12;3.90;99.90
6174;DHT22;3120;48.796;9.796;2023-02-12T05:41:38;4.10;99.90
6174;DHT22;3120;48.796;9.796;2023-02-12T05:44:04;4.10;99.90
6174;DHT22;3120;48.796;9.796;2023-02-12T05:46:31;4.10;99.90
6174;DHT22;3120;48.796;9.796;2023-02-12T05:48:57;4.00;99.90
6174;DHT22;3120;48.796;9.796;2023-02-12T05:51:25;4.10;99.90
6174;DHT22;3120;48.796;9.796;2023-02-12T05:53:55;4.00;99.90
6174;DHT22;3120;48.796;9.796;2023-02-12T05:56:23;4.00;99.90
6174;DHT22;3120;48.796;9.796;2023-02-12T05:58:56;4.00;99.90
6174;DHT22;3120;48.796;9.796;2023-02-12T06:01:27;4.00;99.90
6174;DHT22;3120;48.796;9.796;2023-02-12T06:03:53;5.10;99.90
6174;DHT22;3120;48.796;9.796;2023-02-12T06:06:19;4.00;99.90
6174;DHT22;3120;48.796;9.796;2023-02-12T06:08:49;4.00;99.90
6174;DHT22;3120;48.796;9.796;2023-02-12T06:11:15;4.00;99.90
6174;DHT22;3120;48.796;9.796;2023-02-12T06:13:41;5.10;99.90
6174;DHT22;3120;48.796;9.796;2023-02-12T06:16:15;4.00;99.90
6174;DHT22;3120;48.796;9.796;2023-02-12T06:18:41;5.30;99.90
6174;DHT22;3120;48.796;9.796;2023-02-12T06:21:07;4.00;99.90
6174;DHT22;3120;48.796;9.796;2023-02-12T06:23:32;4.00;99.90
6174;DHT22;3120;48.796;9.796;2023-02-12T06:25:58;5.60;99.90
6174;DHT22;3120;48.796;9.796;2023-02-12T06:28:24;4.70;99.90
6174;DHT22;3120;48.796;9.796;2023-02-12T06:30:50;4.00;99.90
6174;DHT22;3120;48.796;9.796;2023-02-12T06:33:15;4.00;99.90
6174;DHT22;3120;48.796;9.796;2023-02-12T06:35:41;4.00;99.90
6174;DHT22;3120;48.796;9.796;2023-02-12T06:38:06;4.00;99.90
6174;DHT22;3120;48.796;9.796;2023-02-12T06:40:32;4.10;99.90
6174;DHT22;3120;48.796;9.796;2023-02-12T06:42:58;4.00;99.90
6174;DHT22;3120;48.796;9.796;2023-02-12T06:45:24;4.00;99.90
6174;DHT22;3120;48.796;9.796;2023-02-12T06:47:56;4.10;99.90
6174;DHT22;3120;48.796;9.796;2023-02-12T06:50:21;4.20;99.90
6174;DHT22;3120;48.796;9.796;2023-02-12T06:52:47;4.10;99.90
6174;DHT22;3120;48.796;9.796;2023-02-12T06:55:13;4.10;99.90
6174;DHT22;3120;48.796;9.796;2023-02-12T06:57:38;4.20;99.90
6174;DHT22;3120;48.796;9.796;2023-02-12T07:00:27;4.10;99.90
6174;DHT22;3120;48.796;9.796;2023-02-12T07:03:05;4.20;99.90
6174;DHT22;3120;48.796;9.796;2023-02-12T07:05:30;5.70;99.90
6174;DHT22;3120;48.796;9.796;2023-02-12T07:08:09;4.10;99.90
6174;DHT22;3120;48.796;9.796;2023-02-12T07:10:39;4.20;99.90
6174;DHT22;3120;48.796;9.796;2023-02-12T07:13:29;4.20;99.90
6174;DHT22;3120;48.796;9.796;2023-02-12T07:19:17;4.30;99.90
6174;DHT22;3120;48.796;9.796;2023-02-12T07:21:43;4.30;99.90
6174;DHT22;3120;48.796;9.796;2023-02-12T07:27:35;4.40;99.90
6174;DHT22;3120;48.796;9.796;2023-02-12T07:30:02;4.30;99.90
6174;DHT22;3120;48.796;9.796;2023-02-12T08:39:42;5.70;99.90
6174;DHT22;3120;48.796;9.796;2023-02-12T08:42:08;5.70;99.90
6174;DHT22;3120;48.796;9.796;2023-02-12T08:44:34;8.30;99.90
6174;DHT22;3120;48.796;9.796;2023-02-12T08:47:01;7.90;99.90
6174;DHT22;3120;48.796;9.796;2023-02-12T08:52:49;6.00;99.90
6174;DHT22;3120;48.796;9.796;2023-02-12T08:55:15;6.00;99.90
6174;DHT22;3120;48.796;9.796;2023-02-12T09:00:11;6.10;99.90
6174;DHT22;3120;48.796;9.796;2023-02-12T09:02:36;6.30;99.90
6174;DHT22;3120;48.796;9.796;2023-02-12T09:05:02;6.80;99.90
6174;DHT22;3120;48.796;9.796;2023-02-12T09:07:28;6.50;99.90
6174;DHT22;3120;48.796;9.796;2023-02-12T09:09:53;8.10;99.90
6174;DHT22;3120;48.796;9.796;2023-02-12T09:12:22;7.70;95.40
6174;DHT22;3120;48.796;9.796;2023-02-12T09:14:47;6.60;99.90
6174;DHT22;3120;48.796;9.796;2023-02-12T09:17:13;6.70;99.90
6174;DHT22;3120;48.796;9.796;2023-02-12T09:19:39;6.80;97.30
6174;DHT22;3120;48.796;9.796;2023-02-12T09:22:04;9.10;99.90
6174;DHT22;3120;48.796;9.796;2023-02-12T09:24:33;8.50;99.90
6174;DHT22;3120;48.796;9.796;2023-02-12T09:26:58;6.90;94.10
6174;DHT22;3120;48.796;9.796;2023-02-12T09:29:24;6.90;99.90
6174;DHT22;3120;48.796;9.796;2023-02-12T09:31:49;7.30;98.20
6174;DHT22;3120;48.796;9.796;2023-02-12T09:34:15;8.00;95.60
6174;DHT22;3120;48.796;9.796;2023-02-12T09:36:41;7.20;64.60
6174;DHT22;3120;48.796;9.796;2023-02-12T09:39:06;9.40;37.80
6174;DHT22;3120;48.796;9.796;2023-02-12T09:47:19;7.40;30.00
6174;DHT22;3120;48.796;9.796;2023-02-12T09:52:27;7.60;34.10
6174;DHT22;3120;48.796;9.796;2023-02-12T09:54:55;7.60;20.70
6174;DHT22;3120;48.796;9.796;2023-02-12T09:57:25;7.80;15.00
6174;DHT22;3120;48.796;9.796;2023-02-12T09:59:58;7.70;5.30
6174;DHT22;3120;48.796;9.796;2023-02-12T10:02:26;7.80;12.90
6174;DHT22;3120;48.796;9.796;2023-02-12T10:04:53;8.70;1.00
6174;DHT22;3120;48.796;9.796;2023-02-12T10:12:52;8.10;1.00
6174;DHT22;3120;48.796;9.796;2023-02-12T10:21:01;8.20;1.00
6174;DHT22;3120;48.796;9.796;2023-02-12T10:26:28;8.40;1.00
6174;DHT22;3120;48.796;9.796;2023-02-12T10:28:58;8.10;1.00
6174;DHT22;3120;48.796;9.796;2023-02-12T10:31:32;9.70;1.00
6174;DHT22;3120;48.796;9.796;2023-02-12T10:33:59;8.20;1.00
6174;DHT22;3120;48.796;9.796;2023-02-12T10:36:46;9.00;1.00
6174;DHT22;3120;48.796;9.796;2023-02-12T10:39:36;8.20;1.00
6174;DHT22;3120;48.796;9.796;2023-02-12T10:44:56;8.20;1.00
6174;DHT22;3120;48.796;9.796;2023-02-12T10:47:23;8.20;1.00
6174;DHT22;3120;48.796;9.796;2023-02-12T10:49:55;8.20;1.00
6174;DHT22;3120;48.796;9.796;2023-02-12T10:52:36;8.30;1.00
6174;DHT22;3120;48.796;9.796;2023-02-12T10:55:26;8.40;1.00
6174;DHT22;3120;48.796;9.796;2023-02-12T10:57:52;8.60;1.00
6174;DHT22;3120;48.796;9.796;2023-02-12T11:00:31;8.60;1.00
6174;DHT22;3120;48.796;9.796;2023-02-12T11:05:42;8.70;1.00
6174;DHT22;3120;48.796;9.796;2023-02-12T11:08:29;8.50;1.00
6174;DHT22;3120;48.796;9.796;2023-02-12T11:11:18;8.70;1.00
6174;DHT22;3120;48.796;9.796;2023-02-12T11:16:33;9.90;99.90
6174;DHT22;3120;48.796;9.796;2023-02-12T11:19:06;8.70;99.90
6174;DHT22;3120;48.796;9.796;2023-02-12T11:21:33;8.70;1.00
6174;DHT22;3120;48.796;9.796;2023-02-12T11:24:33;9.40;99.90
6174;DHT22;3120;48.796;9.796;2023-02-12T11:27:23;8.80;99.90
6174;DHT22;3120;48.796;9.796;2023-02-12T11:32:35;8.80;99.90
6174;DHT22;3120;48.796;9.796;2023-02-12T11:35:19;9.50;99.90
6174;DHT22;3120;48.796;9.796;2023-02-12T11:37:56;10.20;1.00
6174;DHT22;3120;48.796;9.796;2023-02-12T11:42:59;8.70;1.00
6174;DHT22;3120;48.796;9.796;2023-02-12T11:45:31;10.70;1.00
6174;DHT22;3120;48.796;9.796;2023-02-12T11:47:59;8.70;1.00
6174;DHT22;3120;48.796;9.796;2023-02-12T11:50:28;8.90;99.90
6174;DHT22;3120;48.796;9.796;2023-02-12T11:52:59;9.60;1.00
6174;DHT22;3120;48.796;9.796;2023-02-12T11:55:32;8.90;99.90
6174;DHT22;3120;48.796;9.796;2023-02-12T12:00:32;9.20;3.60
6174;DHT22;3120;48.796;9.796;2023-02-12T12:03:13;9.00;99.90
6174;DHT22;3120;48.796;9.796;2023-02-12T12:05:51;9.00;99.90
6174;DHT22;3120;48.796;9.796;2023-02-12T12:11:17;8.80;1.00
6174;DHT22;3120;48.796;9.796;2023-02-12T12:14:01;8.80;1.00
6174;DHT22;3120;48.796;9.796;2023-02-12T12:16:35;8.80;1.00
6174;DHT22;3120;48.796;9.796;2023-02-12T12:19:26;8.90;99.90
6174;DHT22;3120;48.796;9.796;2023-02-12T12:25:09;8.90;99.90
6174;DHT22;3120;48.796;9.796;2023-02-12T12:27:42;8.90;99.90
6174;DHT22;3120;48.796;9.796;2023-02-12T12:30:48;8.80;1.00
6174;DHT22;3120;48.796;9.796;2023-02-12T12:33:36;8.80;1.00
6174;DHT22;3120;48.796;9.796;2023-02-12T12:41:22;8.90;99.90
6174;DHT22;3120;48.796;9.796;2023-02-12T12:46:44;9.10;99.90
6174;DHT22;3120;48.796;9.796;2023-02-12T12:55:33;9.00;99.90
6174;DHT22;3120;48.796;9.796;2023-02-12T13:09:31;9.00;1.00
6174;DHT22;3120;48.796;9.796;2023-02-12T13:23:22;9.00;1.00
6174;DHT22;3120;48.796;9.796;2023-02-12T13:28:45;9.10;99.90
6174;DHT22;3120;48.796;9.796;2023-02-12T13:31:16;9.10;99.90
6174;DHT22;3120;48.796;9.796;2023-02-12T13:33:45;9.10;99.90
6174;DHT22;3120;48.796;9.796;2023-02-12T13:36:13;8.90;1.00
6174;DHT22;3120;48.796;9.796;2023-02-12T13:38:49;8.80;1.00
6174;DHT22;3120;48.796;9.796;2023-02-12T13:41:17;8.80;1.00
6174;DHT22;3120;48.796;9.796;2023-02-12T13:44:45;9.00;1.00
6174;DHT22;3120;48.796;9.796;2023-02-12T13:50:01;9.00;1.00
6174;DHT22;3120;48.796;9.796;2023-02-12T13:52:39;8.70;1.00
6174;DHT22;3120;48.796;9.796;2023-02-12T13:55:33;8.70;1.00
6174;DHT22;3120;48.796;9.796;2023-02-12T14:00:59;8.60;1.00
6174;DHT22;3120;48.796;9.796;2023-02-12T14:03:26;8.40;1.00
6174;DHT22;3120;48.796;9.796;2023-02-12T14:06:15;8.50;1.00
6174;DHT22;3120;48.796;9.796;2023-02-12T14:08:46;8.60;1.00
6174;DHT22;3120;48.796;9.796;2023-02-12T14:11:15;8.40;1.00
6174;DHT22;3120;48.796;9.796;2023-02-12T14:16:37;8.50;1.00
6174;DHT22;3120;48.796;9.796;2023-02-12T14:22:01;8.40;1.00
6174;DHT22;3120;48.796;9.796;2023-02-12T14:24:48;8.30;1.00
6174;DHT22;3120;48.796;9.796;2023-02-12T14:27:22;8.20;1.00
6174;DHT22;3120;48.796;9.796;2023-02-12T14:30:29;8.30;1.00
6174;DHT22;3120;48.796;9.796;2023-02-12T14:33:23;8.30;1.00
6174;DHT22;3120;48.796;9.796;2023-02-12T14:41:25;8.60;1.00
6174;DHT22;3120;48.796;9.796;2023-02-12T14:46:53;8.60;1.00
6174;DHT22;3120;48.796;9.796;2023-02-12T14:57:39;8.50;1.00
6174;DHT22;3120;48.796;9.796;2023-02-12T15:02:53;8.60;1.00
6174;DHT22;3120;48.796;9.796;2023-02-12T15:05:45;8.60;1.00
6174;DHT22;3120;48.796;9.796;2023-02-12T15:08:25;8.50;1.00
6174;DHT22;3120;48.796;9.796;2023-02-12T15:10:57;8.60;1.00
6174;DHT22;3120;48.796;9.796;2023-02-12T15:13:30;8.60;1.00
6174;DHT22;3120;48.796;9.796;2023-02-12T15:16:26;8.60;1.00
6174;DHT22;3120;48.796;9.796;2023-02-12T15:21:24;8.60;1.00
6174;DHT22;3120;48.796;9.796;2023-02-12T15:24:06;8.60;1.00
6174;DHT22;3120;48.796;9.796;2023-02-12T15:26:46;8.60;1.00
6174;DHT22;3120;48.796;9.796;2023-02-12T15:32:37;8.50;1.00
6174;DHT22;3120;48.796;9.796;2023-02-12T15:35:03;8.50;1.00
6174;DHT22;3120;48.796;9.796;2023-02-12T15:37:36;8.50;1.00
6174;DHT22;3120;48.796;9.796;2023-02-12T15:40:13;8.50;1.00
6174;DHT22;3120;48.796;9.796;2023-02-12T15:42:40;8.50;1.00
6174;DHT22;3120;48.796;9.796;2023-02-12T15:50:29;8.40;1.00
6174;DHT22;3120;48.796;9.796;2023-02-12T15:52:55;9.10;1.00
6174;DHT22;3120;48.796;9.796;2023-02-12T15:55:26;8.30;1.00
6174;DHT22;3120;48.796;9.796;2023-02-12T15:57:58;8.30;1.00
6174;DHT22;3120;48.796;9.796;2023-02-12T16:02:55;8.20;1.00
6174;DHT22;3120;48.796;9.796;2023-02-12T16:05:21;8.10;1.00
6174;DHT22;3120;48.796;9.796;2023-02-12T16:11:03;7.90;1.00
6174;DHT22;3120;48.796;9.796;2023-02-12T16:13:49;7.80;1.00
6174;DHT22;3120;48.796;9.796;2023-02-12T16:16:46;7.70;1.00
6174;DHT22;3120;48.796;9.796;2023-02-12T16:19:31;8.80;1.00
6174;DHT22;3120;48.796;9.796;2023-02-12T16:22:08;7.50;22.80
6174;DHT22;3120;48.796;9.796;2023-02-12T16:24:38;7.60;17.60
6174;DHT22;3120;48.796;9.796;2023-02-12T16:27:31;7.50;13.60
6174;DHT22;3120;48.796;9.796;2023-02-12T16:32:58;7.40;36.70
6174;DHT22;3120;48.796;9.796;2023-02-12T16:41:14;7.10;61.80
6174;DHT22;3120;48.796;9.796;2023-02-12T16:43:40;7.00;92.00
6174;DHT22;3120;48.796;9.796;2023-02-12T16:46:09;7.00;89.40
6174;DHT22;3120;48.796;9.796;2023-02-12T16:48:40;6.90;99.90
6174;DHT22;3120;48.796;9.796;2023-02-12T16:51:24;8.00;99.90
6174;DHT22;3120;48.796;9.796;2023-02-12T16:53:51;8.10;99.90
6174;DHT22;3120;48.796;9.796;2023-02-12T16:56:20;7.20;99.90
6174;DHT22;3120;48.796;9.796;2023-02-12T16:58:51;7.10;99.90
6174;DHT22;3120;48.796;9.796;2023-02-12T17:01:31;6.30;99.90
6174;DHT22;3120;48.796;9.796;2023-02-12T17:03:59;6.20;99.90
6174;DHT22;3120;48.796;9.796;2023-02-12T17:06:29;6.10;99.90
6174;DHT22;3120;48.796;9.796;2023-02-12T17:08:55;6.00;99.90
6174;DHT22;3120;48.796;9.796;2023-02-12T17:11:22;6.00;99.90
6174;DHT22;3120;48.796;9.796;2023-02-12T17:13:51;5.90;99.90
6174;DHT22;3120;48.796;9.796;2023-02-12T17:16:18;6.90;99.90
6174;DHT22;3120;48.796;9.796;2023-02-12T17:18:44;5.60;99.90
6174;DHT22;3120;48.796;9.796;2023-02-12T17:23:42;5.70;99.90
6174;DHT22;3120;48.796;9.796;2023-02-12T17:26:08;5.70;99.90
6174;DHT22;3120;48.796;9.796;2023-02-12T17:28:34;5.50;99.90
6174;DHT22;3120;48.796;9.796;2023-02-12T17:31:00;5.40;99.90
6174;DHT22;3120;48.796;9.796;2023-02-12T17:33:30;5.30;99.90
6174;DHT22;3120;48.796;9.796;2023-02-12T17:35:57;5.20;99.90
6174;DHT22;3120;48.796;9.796;2023-02-12T17:38:23;5.20;99.90
6174;DHT22;3120;48.796;9.796;2023-02-12T17:40:49;5.10;99.90
6174;DHT22;3120;48.796;9.796;2023-02-12T17:43:14;5.00;99.90
6174;DHT22;3120;48.796;9.796;2023-02-12T17:48:12;5.00;99.90
6174;DHT22;3120;48.796;9.796;2023-02-12T17:50:38;4.90;99.90
6174;DHT22;3120;48.796;9.796;2023-02-12T17:53:05;4.80;99.90
6174;DHT22;3120;48.796;9.796;2023-02-12T17:55:32;4.80;99.90
6174;DHT22;3120;48.796;9.796;2023-02-12T17:57:58;4.80;99.90
6174;DHT22;3120;48.796;9.796;2023-02-12T18:00:25;4.80;99.90
6174;DHT22;3120;48.796;9.796;2023-02-12T18:02:51;4.80;99.90
6174;DHT22;3120;48.796;9.796;2023-02-12T18:05:17;4.70;99.90
6174;DHT22;3120;48.796;9.796;2023-02-12T18:07:42;4.50;99.90
6174;DHT22;3120;48.796;9.796;2023-02-12T18:10:09;4.40;99.90
6174;DHT22;3120;48.796;9.796;2023-02-12T18:12:35;4.30;99.90
6174;DHT22;3120;48.796;9.796;2023-02-12T18:15:02;5.50;99.90
6174;DHT22;3120;48.796;9.796;2023-02-12T18:17:28;4.20;99.90
6174;DHT22;3120;48.796;9.796;2023-02-12T18:19:54;5.20;99.90
6174;DHT22;3120;48.796;9.796;2023-02-12T18:22:20;4.00;99.90
6174;DHT22;3120;48.796;9.796;2023-02-12T18:24:46;3.90;99.90
6174;DHT22;3120;48.796;9.796;2023-02-12T18:27:13;3.80;99.90
6174;DHT22;3120;48.796;9.796;2023-02-12T18:29:39;3.70;99.90
6174;DHT22;3120;48.796;9.796;2023-02-12T18:32:05;3.60;99.90
6174;DHT22;3120;48.796;9.796;2023-02-12T18:34:32;3.50;99.90
6174;DHT22;3120;48.796;9.796;2023-02-12T18:36:58;3.50;99.90
6174;DHT22;3120;48.796;9.796;2023-02-12T18:39:24;3.50;99.90
6174;DHT22;3120;48.796;9.796;2023-02-12T18:41:50;3.60;99.90
6174;DHT22;3120;48.796;9.796;2023-02-12T18:44:15;3.60;99.90
6174;DHT22;3120;48.796;9.796;2023-02-12T18:46:41;3.50;99.90
6174;DHT22;3120;48.796;9.796;2023-02-12T18:49:07;3.40;99.90
6174;DHT22;3120;48.796;9.796;2023-02-12T18:51:33;3.40;99.90
6174;DHT22;3120;48.796;9.796;2023-02-12T18:54:07;3.30;99.90
6174;DHT22;3120;48.796;9.796;2023-02-12T18:56:36;3.30;99.90
6174;DHT22;3120;48.796;9.796;2023-02-12T18:59:03;4.20;99.90
6174;DHT22;3120;48.796;9.796;2023-02-12T19:01:31;3.20;99.90
6174;DHT22;3120;48.796;9.796;2023-02-12T19:03:59;3.10;99.90
6174;DHT22;3120;48.796;9.796;2023-02-12T19:06:26;3.20;99.90
6174;DHT22;3120;48.796;9.796;2023-02-12T19:09:00;3.10;99.90
6174;DHT22;3120;48.796;9.796;2023-02-12T19:11:27;3.30;99.90
6174;DHT22;3120;48.796;9.796;2023-02-12T19:13:56;3.00;99.90
6174;DHT22;3120;48.796;9.796;2023-02-12T19:16:23;3.00;99.90
6174;DHT22;3120;48.796;9.796;2023-02-12T19:18:50;2.90;99.90
6174;DHT22;3120;48.796;9.796;2023-02-12T19:21:19;2.90;99.90
6174;DHT22;3120;48.796;9.796;2023-02-12T19:23:45;2.90;99.90
6174;DHT22;3120;48.796;9.796;2023-02-12T19:26:14;3.00;99.90
6174;DHT22;3120;48.796;9.796;2023-02-12T19:28:41;3.10;99.90
6174;DHT22;3120;48.796;9.796;2023-02-12T19:33:48;2.60;99.90
6174;DHT22;3120;48.796;9.796;2023-02-12T19:36:17;2.60;99.90
6174;DHT22;3120;48.796;9.796;2023-02-12T19:38:45;2.50;99.90
6174;DHT22;3120;48.796;9.796;2023-02-12T19:41:15;2.50;99.90
6174;DHT22;3120;48.796;9.796;2023-02-12T19:43:41;3.60;99.90
6174;DHT22;3120;48.796;9.796;2023-02-12T19:46:16;2.40;99.90
6174;DHT22;3120;48.796;9.796;2023-02-12T19:48:44;2.40;99.90
6174;DHT22;3120;48.796;9.796;2023-02-12T19:51:14;3.10;99.90
6174;DHT22;3120;48.796;9.796;2023-02-12T19:53:40;2.30;99.90
6174;DHT22;3120;48.796;9.796;2023-02-12T19:56:06;2.20;99.90
6174;DHT22;3120;48.796;9.796;2023-02-12T19:58:32;2.20;99.90
6174;DHT22;3120;48.796;9.796;2023-02-12T20:00:58;2.20;99.90
6174;DHT22;3120;48.796;9.796;2023-02-12T20:03:24;2.10;99.90
6174;DHT22;3120;48.796;9.796;2023-02-12T20:05:59;2.00;99.90
6174;DHT22;3120;48.796;9.796;2023-02-12T20:08:26;2.10;99.90
6174;DHT22;3120;48.796;9.796;2023-02-12T20:10:53;2.10;99.90
6174;DHT22;3120;48.796;9.796;2023-02-12T20:13:19;2.10;99.90
6174;DHT22;3120;48.796;9.796;2023-02-12T20:15:46;2.00;99.90
6174;DHT22;3120;48.796;9.796;2023-02-12T20:18:12;2.00;99.90
6174;DHT22;3120;48.796;9.796;2023-02-12T20:20:41;1.90;99.90
6174;DHT22;3120;48.796;9.796;2023-02-12T20:23:07;1.80;99.90
6174;DHT22;3120;48.796;9.796;2023-02-12T20:25:32;1.80;99.90
6174;DHT22;3120;48.796;9.796;2023-02-12T20:27:58;1.70;99.90
6174;DHT22;3120;48.796;9.796;2023-02-12T20:30:24;1.70;99.90
6174;DHT22;3120;48.796;9.796;2023-02-12T20:32:50;1.90;99.90
6174;DHT22;3120;48.796;9.796;2023-02-12T20:35:16;1.60;99.90
6174;DHT22;3120;48.796;9.796;2023-02-12T20:37:44;1.60;99.90
6174;DHT22;3120;48.796;9.796;2023-02-12T20:40:10;1.50;99.90
6174;DHT22;3120;48.796;9.796;2023-02-12T20:42:36;1.50;99.90
6174;DHT22;3120;48.796;9.796;2023-02-12T20:45:03;1.40;99.90
6174;DHT22;3120;48.796;9.796;2023-02-12T20:47:29;1.30;99.90
6174;DHT22;3120;48.796;9.796;2023-02-12T20:49:55;1.30;99.90
6174;DHT22;3120;48.796;9.796;2023-02-12T20:52:22;1.30;99.90
6174;DHT22;3120;48.796;9.796;2023-02-12T20:54:47;1.30;99.90
6174;DHT22;3120;48.796;9.796;2023-02-12T20:57:13;1.30;99.90
6174;DHT22;3120;48.796;9.796;2023-02-12T20:59:39;1.30;99.90
6174;DHT22;3120;48.796;9.796;2023-02-12T21:02:06;1.30;99.90
6174;DHT22;3120;48.796;9.796;2023-02-12T21:04:32;1.30;99.90
6174;DHT22;3120;48.796;9.796;2023-02-12T21:06:57;1.20;99.90